createdAt,value
2023-05-23T00:00:53.784Z,3.10
2023-05-23T00:03:56.699Z,3.30
2023-05-23T00:07:00.619Z,3.05
2023-05-23T00:10:03.925Z,3.03
2023-05-23T00:13:09.557Z,3.20
2023-05-23T00:16:12.140Z,2.90
2023-05-23T00:19:17.622Z,3.08
2023-05-23T00:22:20.294Z,3.00
2023-05-23T00:25:23.075Z,3.33
2023-05-23T00:28:26.257Z,3.03
2023-05-23T00:31:28.897Z,2.90
2023-05-23T00:34:31.681Z,3.30
2023-05-23T00:37:37.332Z,2.97
2023-05-23T00:40:40.174Z,3.20
2023-05-23T00:43:42.802Z,3.00
2023-05-23T00:46:50.088Z,2.90
2023-05-23T00:49:52.805Z,3.45
2023-05-23T00:52:56.846Z,3.22
2023-05-23T00:55:59.596Z,3.00
2023-05-23T00:59:02.453Z,3.20
2023-05-23T01:02:05.768Z,3.30
2023-05-23T01:05:09.346Z,2.83
2023-05-23T01:08:12.121Z,2.80
2023-05-23T01:11:30.468Z,3.28
2023-05-23T01:14:47.437Z,3.20
2023-05-23T01:18:17.840Z,3.05
2023-05-23T01:21:23.224Z,3.42
2023-05-23T01:24:36.766Z,2.85
2023-05-23T01:27:53.041Z,3.10
2023-05-23T01:30:58.594Z,3.10
2023-05-23T01:34:01.668Z,3.13
2023-05-23T01:37:09.625Z,3.35
2023-05-23T01:40:12.375Z,3.10
2023-05-23T01:43:15.530Z,3.30
2023-05-23T01:46:18.878Z,3.30
2023-05-23T01:49:23.333Z,3.20
2023-05-23T01:52:28.828Z,3.03
2023-05-23T01:55:31.693Z,2.78
2023-05-23T01:58:34.649Z,3.30
2023-05-23T02:01:38.905Z,3.30
2023-05-23T02:04:41.613Z,2.90
2023-05-23T02:07:44.238Z,2.97
2023-05-23T02:10:47.291Z,3.03
2023-05-23T02:13:50.364Z,3.05
2023-05-23T02:16:53.067Z,3.20
2023-05-23T02:19:56.935Z,2.90
2023-05-23T02:22:59.589Z,3.08
2023-05-23T02:26:02.143Z,2.97
2023-05-23T02:29:04.792Z,3.10
2023-05-23T02:32:08.747Z,3.50
2023-05-23T02:35:12.209Z,3.08
2023-05-23T02:38:14.947Z,3.40
2023-05-23T02:41:17.718Z,3.10
2023-05-23T02:44:20.485Z,3.10
2023-05-23T02:47:23.272Z,3.20
2023-05-23T02:50:26.297Z,3.30
2023-05-23T02:53:28.874Z,2.83
2023-05-23T02:56:31.517Z,3.20
2023-05-23T02:59:34.309Z,3.17
2023-05-23T03:02:37.051Z,3.10
2023-05-23T03:05:39.841Z,2.80
2023-05-23T03:08:43.235Z,3.35
2023-05-23T03:11:46.613Z,2.90
2023-05-23T03:14:49.273Z,3.20
2023-05-23T03:17:51.929Z,2.87
2023-05-23T03:20:55.009Z,3.03
2023-05-23T03:23:59.381Z,3.10
2023-05-23T03:27:02.262Z,3.10
2023-05-23T03:30:05.443Z,3.00
2023-05-23T03:33:09.317Z,2.90
2023-05-23T03:36:12.149Z,3.15
2023-05-23T03:39:14.764Z,3.00
2023-05-23T03:42:18.593Z,3.03
2023-05-23T03:45:21.758Z,2.80
2023-05-23T03:48:24.493Z,3.17
2023-05-23T03:51:28.397Z,3.08
2023-05-23T03:54:31.290Z,2.97
2023-05-23T03:57:34.014Z,2.92
2023-05-23T04:00:36.767Z,3.13
2023-05-23T04:03:42.557Z,2.53
2023-05-23T04:06:45.642Z,2.90
2023-05-23T04:09:48.366Z,3.10
2023-05-23T04:12:51.778Z,3.25
2023-05-23T04:15:58.107Z,3.05
2023-05-23T04:19:05.479Z,2.80
2023-05-23T04:22:08.506Z,2.60
2023-05-23T04:25:12.679Z,2.88
2023-05-23T04:28:22.041Z,2.67
2023-05-23T04:31:24.809Z,2.80
2023-05-23T04:34:28.058Z,2.70
2023-05-23T04:37:33.108Z,3.15
2023-05-23T04:40:36.618Z,2.83
2023-05-23T04:43:58.558Z,3.10
2023-05-23T04:47:04.851Z,3.10
2023-05-23T04:50:26.283Z,2.70
2023-05-23T04:53:28.919Z,3.00
2023-05-23T04:56:33.309Z,2.95
2023-05-23T04:59:36.365Z,3.20
2023-05-23T05:02:39.647Z,3.03
2023-05-23T05:05:42.522Z,2.97
2023-05-23T05:08:45.430Z,2.83
2023-05-23T05:11:48.824Z,2.70
2023-05-23T05:14:51.386Z,2.90
2023-05-23T05:17:54.480Z,2.95
2023-05-23T05:20:58.698Z,2.90
2023-05-23T05:24:01.843Z,2.88
2023-05-23T05:27:04.720Z,2.80
2023-05-23T05:30:09.103Z,3.05
2023-05-23T05:33:36.546Z,2.63
2023-05-23T05:36:48.453Z,2.60
2023-05-23T05:39:54.652Z,2.83
2023-05-23T05:42:57.611Z,3.00
2023-05-23T05:46:01.829Z,3.90
2023-05-23T05:49:05.190Z,4.57
2023-05-23T05:52:08.761Z,4.50
2023-05-23T05:55:13.058Z,4.20
2023-05-23T05:58:20.108Z,3.90
2023-05-23T06:01:36.021Z,4.30
2023-05-23T06:04:38.938Z,3.80
2023-05-23T06:07:42.039Z,4.10
2023-05-23T06:10:44.882Z,4.18
2023-05-23T06:13:48.075Z,3.90
2023-05-23T06:17:01.184Z,4.32
2023-05-23T06:20:05.520Z,3.72
2023-05-23T06:23:09.497Z,3.83
2023-05-23T06:26:12.794Z,3.88
2023-05-23T06:29:16.942Z,3.83
2023-05-23T06:32:19.583Z,4.07
2023-05-23T06:35:23.517Z,3.65
2023-05-23T06:38:29.763Z,2.90
2023-05-23T06:41:32.421Z,3.50
2023-05-23T06:44:35.211Z,3.53
2023-05-23T06:47:39.078Z,3.60
2023-05-23T06:50:42.333Z,4.22
2023-05-23T06:53:47.012Z,3.63
2023-05-23T06:56:50.415Z,3.80
2023-05-23T06:59:53.342Z,3.70
2023-05-23T07:03:13.004Z,3.63
2023-05-23T07:06:16.639Z,3.90
2023-05-23T07:09:20.586Z,4.00
2023-05-23T07:12:25.902Z,4.18
2023-05-23T07:15:30.991Z,3.72
2023-05-23T07:18:49.000Z,3.55
2023-05-23T07:22:03.262Z,3.40
2023-05-23T07:25:13.404Z,3.57
2023-05-23T07:28:27.591Z,3.22
2023-05-23T07:31:31.598Z,3.53
2023-05-23T07:34:35.892Z,3.30
2023-05-23T07:37:38.936Z,3.50
2023-05-23T07:41:02.630Z,3.57
2023-05-23T07:44:11.517Z,3.95
2023-05-23T07:50:34.110Z,3.60
2023-05-23T07:53:42.076Z,3.38
2023-05-23T07:57:03.708Z,3.50
2023-05-23T08:00:07.802Z,3.40
2023-05-23T08:03:19.369Z,3.33
2023-05-23T08:06:34.938Z,3.25
2023-05-23T08:09:42.355Z,3.80
2023-05-23T08:12:48.837Z,3.70
2023-05-23T08:15:55.072Z,3.67
2023-05-23T08:19:00.970Z,3.80
2023-05-23T08:22:04.926Z,3.70
2023-05-23T08:25:08.505Z,3.83
2023-05-23T08:28:13.591Z,4.07
2023-05-23T08:31:27.680Z,3.70
2023-05-23T08:34:38.977Z,4.13
2023-05-23T08:37:43.588Z,4.00
2023-05-23T08:40:56.570Z,4.07
2023-05-23T08:44:01.910Z,3.90
2023-05-23T08:47:09.554Z,3.75
2023-05-23T08:50:23.069Z,4.07
2023-05-23T08:53:27.679Z,3.90
2023-05-23T08:56:38.921Z,3.83
2023-05-23T08:59:43.937Z,4.20
2023-05-23T09:02:47.758Z,5.15
2023-05-23T09:06:11.654Z,4.80
2023-05-23T09:09:15.403Z,4.53
2023-05-23T09:12:18.608Z,4.60
2023-05-23T09:15:24.157Z,4.27
2023-05-23T09:18:27.529Z,4.45
2023-05-23T09:21:32.206Z,4.32
2023-05-23T09:24:47.749Z,4.65
2023-05-23T09:27:53.623Z,5.28
2023-05-23T09:31:04.013Z,5.20
2023-05-23T09:34:07.100Z,4.60
2023-05-23T09:37:13.634Z,5.00
2023-05-23T09:40:16.782Z,4.30
2023-05-23T09:43:33.765Z,5.00
2023-05-23T09:46:41.985Z,4.20
2023-05-23T09:50:21.428Z,4.22
2023-05-23T09:53:44.603Z,4.90
2023-05-23T09:56:47.528Z,4.15
2023-05-23T10:00:14.236Z,4.70
2023-05-23T10:03:17.894Z,4.23
2023-05-23T10:06:29.350Z,3.90
2023-05-23T10:09:39.489Z,4.32
2023-05-23T10:12:54.819Z,4.47
2023-05-23T10:16:28.259Z,4.53
2023-05-23T10:19:43.860Z,4.10
2023-05-23T10:22:46.736Z,4.82
2023-05-23T10:25:49.776Z,4.60
2023-05-23T10:28:53.256Z,4.32
2023-05-23T10:31:56.828Z,4.65
2023-05-23T10:35:34.466Z,4.50
2023-05-23T10:38:51.663Z,4.85
2023-05-23T10:42:08.482Z,4.45
2023-05-23T10:45:21.710Z,4.28
2023-05-23T10:48:35.815Z,4.47
2023-05-23T10:51:40.927Z,4.20
2023-05-23T10:54:52.559Z,4.22
2023-05-23T10:58:17.352Z,4.28
2023-05-23T11:01:23.884Z,4.63
2023-05-23T11:04:28.386Z,4.68
2023-05-23T11:07:33.030Z,4.47
2023-05-23T11:11:01.573Z,4.55
2023-05-23T11:14:04.498Z,4.60
2023-05-23T11:17:13.588Z,4.35
2023-05-23T11:20:18.737Z,4.47
2023-05-23T11:23:22.341Z,4.70
2023-05-23T11:26:32.479Z,4.53
2023-05-23T11:29:35.637Z,4.47
2023-05-23T11:32:38.496Z,4.53
2023-05-23T11:35:45.945Z,4.65
2023-05-23T11:38:53.346Z,4.50
2023-05-23T11:42:05.028Z,4.25
2023-05-23T11:45:09.590Z,4.75
2023-05-23T11:48:13.870Z,4.10
2023-05-23T11:51:17.671Z,4.90
2023-05-23T11:54:24.496Z,4.33
2023-05-23T11:57:28.118Z,4.60
2023-05-23T12:00:31.991Z,4.30
2023-05-23T12:03:36.222Z,4.07
2023-05-23T12:06:41.686Z,4.55
2023-05-23T12:09:44.817Z,4.40
2023-05-23T12:12:48.487Z,4.57
2023-05-23T12:15:54.883Z,4.47
2023-05-23T12:18:59.100Z,4.47
2023-05-23T12:22:07.718Z,4.07
2023-05-23T12:25:13.735Z,4.00
2023-05-23T12:28:16.626Z,3.92
2023-05-23T12:31:22.348Z,4.10
2023-05-23T12:34:25.294Z,4.28
2023-05-23T12:37:27.997Z,4.28
2023-05-23T12:40:30.929Z,4.03
2023-05-23T12:43:33.650Z,4.57
2023-05-23T12:46:37.230Z,4.07
2023-05-23T12:49:41.336Z,4.53
2023-05-23T12:52:48.119Z,4.15
2023-05-23T12:55:50.701Z,4.07
2023-05-23T12:58:54.419Z,4.40
2023-05-23T13:01:57.006Z,4.10
2023-05-23T13:04:59.690Z,4.28
2023-05-23T13:08:02.679Z,4.70
2023-05-23T13:11:05.760Z,4.40
2023-05-23T13:14:08.567Z,4.13
2023-05-23T13:17:11.278Z,3.90
2023-05-23T13:20:14.794Z,3.72
2023-05-23T13:23:17.465Z,3.53
2023-05-23T13:26:20.130Z,3.90
2023-05-23T13:29:22.840Z,3.85
2023-05-23T13:32:26.383Z,4.32
2023-05-23T13:35:29.029Z,4.03
2023-05-23T13:38:38.879Z,3.90
2023-05-23T13:41:42.345Z,3.70
2023-05-23T13:44:45.029Z,4.15
2023-05-23T13:47:47.850Z,4.03
2023-05-23T13:50:50.588Z,4.30
2023-05-23T13:53:53.309Z,4.20
2023-05-23T13:56:55.917Z,4.10
2023-05-23T13:59:58.570Z,4.07
2023-05-23T14:03:01.404Z,4.00
2023-05-23T14:06:05.438Z,3.42
2023-05-23T14:09:09.130Z,3.92
2023-05-23T14:12:11.778Z,4.13
2023-05-23T14:15:14.584Z,4.40
2023-05-23T14:18:17.314Z,3.65
2023-05-23T14:21:19.977Z,4.05
2023-05-23T14:24:22.610Z,4.22
2023-05-23T14:27:25.428Z,3.80
2023-05-23T14:30:28.676Z,4.38
2023-05-23T14:33:31.623Z,3.70
2023-05-23T14:36:37.045Z,3.90
2023-05-23T14:39:41.536Z,3.72
2023-05-23T14:42:44.462Z,3.97
2023-05-23T14:45:47.337Z,4.25
2023-05-23T14:48:49.981Z,3.88
2023-05-23T14:51:53.749Z,3.63
2023-05-23T14:54:56.396Z,3.58
2023-05-23T14:57:59.140Z,3.30
2023-05-23T15:01:01.913Z,3.40
2023-05-23T15:04:05.876Z,4.20
2023-05-23T15:07:09.548Z,4.00
2023-05-23T15:10:12.157Z,4.15
2023-05-23T15:13:14.755Z,4.47
2023-05-23T15:16:18.204Z,4.10
2023-05-23T15:19:20.821Z,4.40
2023-05-23T15:25:47.186Z,4.53
2023-05-23T15:28:51.741Z,3.90
2023-05-23T15:31:54.416Z,4.30
2023-05-23T15:34:57.009Z,4.75
2023-05-23T15:37:59.672Z,4.00
2023-05-23T15:41:03.368Z,4.20
2023-05-23T15:44:06.303Z,3.70
2023-05-23T15:47:09.263Z,4.35
2023-05-23T15:50:14.250Z,3.88
2023-05-23T15:53:17.086Z,4.78
2023-05-23T15:56:20.026Z,4.30
2023-05-23T15:59:22.707Z,4.27
2023-05-23T16:02:25.725Z,3.97
2023-05-23T16:05:28.590Z,4.00
2023-05-23T16:08:31.220Z,4.05
2023-05-23T16:11:33.754Z,4.25
2023-05-23T16:14:36.358Z,3.80
2023-05-23T16:17:39.115Z,3.70
2023-05-23T16:20:41.649Z,4.00
2023-05-23T16:23:44.117Z,3.72
2023-05-23T16:26:46.806Z,4.18
2023-05-23T16:29:49.339Z,3.90
2023-05-23T16:32:51.996Z,3.92
2023-05-23T16:35:54.596Z,3.88
2023-05-23T16:38:57.271Z,3.80
2023-05-23T16:42:00.562Z,4.38
2023-05-23T16:45:04.017Z,3.60
2023-05-23T16:48:06.696Z,3.92
2023-05-23T16:51:09.436Z,3.55
2023-05-23T16:54:12.020Z,3.72
2023-05-23T16:57:14.570Z,3.60
2023-05-23T17:00:17.474Z,3.63
2023-05-23T17:03:21.254Z,4.03
2023-05-23T17:06:24.097Z,4.05
2023-05-23T17:09:26.698Z,3.95
2023-05-23T17:12:29.270Z,3.65
2023-05-23T17:15:32.046Z,3.63
2023-05-23T17:18:34.676Z,4.00
2023-05-23T17:21:37.793Z,4.35
2023-05-23T17:24:40.693Z,3.50
2023-05-23T17:27:43.437Z,4.03
2023-05-23T17:30:46.212Z,3.80
2023-05-23T17:33:48.848Z,3.65
2023-05-23T17:36:52.841Z,3.92
2023-05-23T17:39:57.665Z,3.97
2023-05-23T17:43:00.955Z,3.90
2023-05-23T17:46:03.949Z,3.40
2023-05-23T17:49:07.338Z,3.70
2023-05-23T17:52:10.269Z,3.50
2023-05-23T17:55:12.880Z,3.70
2023-05-23T17:58:15.450Z,3.78
2023-05-23T18:01:18.294Z,3.43
2023-05-23T18:04:22.262Z,3.58
2023-05-23T18:07:24.937Z,3.55
2023-05-23T18:10:27.698Z,3.60
2023-05-23T18:13:30.452Z,3.70
2023-05-23T18:16:33.160Z,3.50
2023-05-23T18:19:36.519Z,3.58
2023-05-23T18:22:39.389Z,3.53
2023-05-23T18:25:42.049Z,3.67
2023-05-23T18:28:45.070Z,3.47
2023-05-23T18:31:47.864Z,3.43
2023-05-23T18:34:51.698Z,3.92
2023-05-23T18:37:54.877Z,3.40
2023-05-23T18:40:58.280Z,3.30
2023-05-23T18:44:02.253Z,3.45
2023-05-23T18:47:06.672Z,3.50
2023-05-23T18:50:10.878Z,3.60
2023-05-23T18:53:14.869Z,3.50
2023-05-23T18:56:18.329Z,3.30
2023-05-23T18:59:22.063Z,3.50
2023-05-23T19:02:27.004Z,3.30
2023-05-23T19:05:31.504Z,3.35
2023-05-23T19:08:35.175Z,3.33
2023-05-23T19:11:39.053Z,3.60
2023-05-23T19:14:41.988Z,3.28
2023-05-23T19:17:45.305Z,3.37
2023-05-23T19:20:48.291Z,3.10
2023-05-23T19:23:52.371Z,3.63
2023-05-23T19:26:56.452Z,3.45
2023-05-23T19:30:01.007Z,3.40
2023-05-23T19:33:05.451Z,3.70
2023-05-23T19:36:12.284Z,3.42
2023-05-23T19:39:16.130Z,3.60
2023-05-23T19:42:19.812Z,3.28
2023-05-23T19:45:25.890Z,3.58
2023-05-23T19:48:29.514Z,3.57
2023-05-23T19:51:34.120Z,3.35
2023-05-23T19:54:38.015Z,3.40
2023-05-23T19:57:41.485Z,3.15
2023-05-23T20:00:44.554Z,2.92
2023-05-23T20:03:47.938Z,3.20
2023-05-23T20:06:52.389Z,3.20
2023-05-23T20:09:56.088Z,3.47
2023-05-23T20:12:58.942Z,3.17
2023-05-23T20:16:02.575Z,3.30
2023-05-23T20:19:07.360Z,3.43
2023-05-23T20:22:09.962Z,2.97
2023-05-23T20:25:12.501Z,3.42
2023-05-23T20:28:15.108Z,3.17
2023-05-23T20:31:19.116Z,3.45
2023-05-23T20:34:21.696Z,3.60
2023-05-23T20:37:24.689Z,3.67
2023-05-23T20:40:29.902Z,3.30
2023-05-23T20:43:37.254Z,3.60
2023-05-23T20:46:43.881Z,3.63
2023-05-23T20:49:47.876Z,3.20
2023-05-23T20:52:51.138Z,3.08
2023-05-23T20:55:53.815Z,3.30
2023-05-23T20:59:00.391Z,3.78
2023-05-23T21:02:03.103Z,3.75
2023-05-23T21:05:07.504Z,3.03
2023-05-23T21:08:10.280Z,3.08
2023-05-23T21:11:12.930Z,3.28
2023-05-23T21:14:15.620Z,3.33
2023-05-23T21:17:20.148Z,3.25
2023-05-23T21:20:22.891Z,3.23
2023-05-23T21:23:25.816Z,3.22
2023-05-23T21:26:29.906Z,3.30
2023-05-23T21:29:32.510Z,3.00
2023-05-23T21:32:35.920Z,3.38
2023-05-23T21:35:38.722Z,3.20
2023-05-23T21:38:41.508Z,3.20
2023-05-23T21:41:44.053Z,3.40
2023-05-23T21:44:46.813Z,3.33
2023-05-23T21:47:49.479Z,3.17
2023-05-23T21:50:52.094Z,3.07
2023-05-23T21:53:54.676Z,3.10
2023-05-23T21:56:58.817Z,3.38
2023-05-23T22:00:01.411Z,3.05
2023-05-23T22:03:04.120Z,3.22
2023-05-23T22:06:07.795Z,3.17
2023-05-23T22:09:13.300Z,3.40
2023-05-23T22:12:15.787Z,3.40
2023-05-23T22:15:18.683Z,3.40
2023-05-23T22:18:27.633Z,3.10
2023-05-23T22:21:31.818Z,3.20
2023-05-23T22:24:34.747Z,3.42
2023-05-23T22:27:39.408Z,2.90
2023-05-23T22:30:42.254Z,3.08
2023-05-23T22:33:45.310Z,3.10
2023-05-23T22:36:51.129Z,3.10
2023-05-23T22:39:54.504Z,3.00
2023-05-23T22:43:03.872Z,3.38
2023-05-23T22:46:07.065Z,3.05
2023-05-23T22:49:10.593Z,3.08
2023-05-23T22:52:13.598Z,3.00
2023-05-23T22:55:17.389Z,2.85
2023-05-23T22:58:20.061Z,3.13
2023-05-23T23:01:22.728Z,3.20
2023-05-23T23:04:25.556Z,2.95
2023-05-23T23:07:29.076Z,2.83
2023-05-23T23:10:31.621Z,3.40
2023-05-23T23:13:34.220Z,3.42
2023-05-23T23:16:38.099Z,2.80
2023-05-23T23:19:41.617Z,3.10
2023-05-23T23:22:47.136Z,2.80
2023-05-23T23:25:50.884Z,3.10
2023-05-23T23:28:53.449Z,3.10
2023-05-23T23:31:58.946Z,3.00
2023-05-23T23:35:04.464Z,2.92
2023-05-23T23:38:07.050Z,3.00
2023-05-23T23:41:09.694Z,3.13
2023-05-23T23:44:12.876Z,2.90
2023-05-23T23:47:15.879Z,3.08
2023-05-23T23:50:18.490Z,3.00
2023-05-23T23:53:23.795Z,2.77
2023-05-23T23:56:26.691Z,2.85
2023-05-23T23:59:31.514Z,3.00
